sensor_id;sensor_type;location;lat;lon;timestamp;P1;durP1;ratioP1;P2;durP2;ratioP2
22646;SDS011;11490;42.726;23.268;2022-12-18T00:01:43;7.13;;;5.53;;
22646;SDS011;11490;42.726;23.268;2022-12-18T00:04:14;12.68;;;7.22;;
22646;SDS011;11490;42.726;23.268;2022-12-18T00:06:43;15.32;;;8.95;;
22646;SDS011;11490;42.726;23.268;2022-12-18T00:09:09;15.18;;;7.72;;
22646;SDS011;11490;42.726;23.268;2022-12-18T00:11:35;9.80;;;6.47;;
22646;SDS011;11490;42.726;23.268;2022-12-18T00:14:00;12.82;;;7.20;;
22646;SDS011;11490;42.726;23.268;2022-12-18T00:16:26;16.15;;;8.95;;
22646;SDS011;11490;42.726;23.268;2022-12-18T00:18:53;7.40;;;6.15;;
22646;SDS011;11490;42.726;23.268;2022-12-18T00:21:20;8.88;;;6.22;;
22646;SDS011;11490;42.726;23.268;2022-12-18T00:23:47;7.40;;;5.10;;
22646;SDS011;11490;42.726;23.268;2022-12-18T00:26:16;6.65;;;5.15;;
22646;SDS011;11490;42.726;23.268;2022-12-18T00:28:43;8.93;;;5.75;;
22646;SDS011;11490;42.726;23.268;2022-12-18T00:31:10;7.55;;;5.95;;
22646;SDS011;11490;42.726;23.268;2022-12-18T00:33:41;9.23;;;6.28;;
22646;SDS011;11490;42.726;23.268;2022-12-18T00:36:08;9.90;;;7.10;;
22646;SDS011;11490;42.726;23.268;2022-12-18T00:38:38;9.05;;;5.95;;
22646;SDS011;11490;42.726;23.268;2022-12-18T00:41:04;7.07;;;5.78;;
22646;SDS011;11490;42.726;23.268;2022-12-18T00:43:30;7.97;;;5.22;;
22646;SDS011;11490;42.726;23.268;2022-12-18T00:45:55;11.57;;;6.78;;
22646;SDS011;11490;42.726;23.268;2022-12-18T00:48:21;10.55;;;6.38;;
22646;SDS011;11490;42.726;23.268;2022-12-18T00:50:47;6.15;;;4.68;;
22646;SDS011;11490;42.726;23.268;2022-12-18T00:53:14;8.85;;;5.75;;
22646;SDS011;11490;42.726;23.268;2022-12-18T00:55:39;7.85;;;6.00;;
22646;SDS011;11490;42.726;23.268;2022-12-18T00:58:05;8.88;;;5.45;;
22646;SDS011;11490;42.726;23.268;2022-12-18T01:00:31;10.27;;;5.32;;
22646;SDS011;11490;42.726;23.268;2022-12-18T01:02:56;9.30;;;6.55;;
22646;SDS011;11490;42.726;23.268;2022-12-18T01:05:22;8.13;;;5.78;;
22646;SDS011;11490;42.726;23.268;2022-12-18T01:07:47;9.38;;;6.55;;
22646;SDS011;11490;42.726;23.268;2022-12-18T01:10:13;10.73;;;5.80;;
22646;SDS011;11490;42.726;23.268;2022-12-18T01:12:39;13.63;;;8.45;;
22646;SDS011;11490;42.726;23.268;2022-12-18T01:15:05;8.02;;;6.05;;
22646;SDS011;11490;42.726;23.268;2022-12-18T01:17:31;11.18;;;7.22;;
22646;SDS011;11490;42.726;23.268;2022-12-18T01:19:57;21.25;;;9.65;;
22646;SDS011;11490;42.726;23.268;2022-12-18T01:22:22;11.98;;;6.07;;
22646;SDS011;11490;42.726;23.268;2022-12-18T01:24:48;10.35;;;6.80;;
22646;SDS011;11490;42.726;23.268;2022-12-18T01:27:13;8.50;;;6.25;;
22646;SDS011;11490;42.726;23.268;2022-12-18T01:29:39;8.27;;;5.70;;
22646;SDS011;11490;42.726;23.268;2022-12-18T01:32:04;10.77;;;6.43;;
22646;SDS011;11490;42.726;23.268;2022-12-18T01:34:30;9.02;;;5.65;;
22646;SDS011;11490;42.726;23.268;2022-12-18T01:36:55;9.77;;;6.68;;
22646;SDS011;11490;42.726;23.268;2022-12-18T01:39:20;10.32;;;5.35;;
22646;SDS011;11490;42.726;23.268;2022-12-18T01:41:46;10.20;;;5.72;;
22646;SDS011;11490;42.726;23.268;2022-12-18T01:50:00;10.38;;;6.57;;
22646;SDS011;11490;42.726;23.268;2022-12-18T01:52:30;7.70;;;5.68;;
22646;SDS011;11490;42.726;23.268;2022-12-18T01:54:57;12.13;;;6.43;;
22646;SDS011;11490;42.726;23.268;2022-12-18T01:57:24;6.07;;;5.40;;
22646;SDS011;11490;42.726;23.268;2022-12-18T01:59:52;10.13;;;5.88;;
22646;SDS011;11490;42.726;23.268;2022-12-18T02:02:19;9.05;;;6.35;;
22646;SDS011;11490;42.726;23.268;2022-12-18T02:04:46;11.05;;;6.35;;
22646;SDS011;11490;42.726;23.268;2022-12-18T02:09:42;8.07;;;5.55;;
22646;SDS011;11490;42.726;23.268;2022-12-18T02:12:33;8.27;;;5.78;;
22646;SDS011;11490;42.726;23.268;2022-12-18T02:17:57;7.47;;;6.15;;
22646;SDS011;11490;42.726;23.268;2022-12-18T02:20:32;8.05;;;5.93;;
22646;SDS011;11490;42.726;23.268;2022-12-18T02:28:28;9.60;;;5.82;;
22646;SDS011;11490;42.726;23.268;2022-12-18T02:30:57;10.70;;;6.05;;
22646;SDS011;11490;42.726;23.268;2022-12-18T02:33:26;7.75;;;5.60;;
22646;SDS011;11490;42.726;23.268;2022-12-18T02:35:53;9.68;;;5.65;;
22646;SDS011;11490;42.726;23.268;2022-12-18T02:38:20;9.57;;;5.78;;
22646;SDS011;11490;42.726;23.268;2022-12-18T02:40:46;6.47;;;5.38;;
22646;SDS011;11490;42.726;23.268;2022-12-18T02:43:14;7.43;;;5.25;;
22646;SDS011;11490;42.726;23.268;2022-12-18T02:45:50;9.82;;;5.90;;
22646;SDS011;11490;42.726;23.268;2022-12-18T02:48:20;11.20;;;6.72;;
22646;SDS011;11490;42.726;23.268;2022-12-18T02:51:01;5.95;;;4.47;;
22646;SDS011;11490;42.726;23.268;2022-12-18T02:53:45;6.95;;;5.07;;
22646;SDS011;11490;42.726;23.268;2022-12-18T02:56:20;10.80;;;7.00;;
22646;SDS011;11490;42.726;23.268;2022-12-18T03:01:51;7.43;;;4.90;;
22646;SDS011;11490;42.726;23.268;2022-12-18T03:04:42;8.93;;;5.38;;
22646;SDS011;11490;42.726;23.268;2022-12-18T03:07:18;6.70;;;5.30;;
22646;SDS011;11490;42.726;23.268;2022-12-18T03:09:49;9.63;;;6.18;;
22646;SDS011;11490;42.726;23.268;2022-12-18T03:12:59;12.38;;;5.85;;
22646;SDS011;11490;42.726;23.268;2022-12-18T03:15:14;11.18;;;6.28;;
22646;SDS011;11490;42.726;23.268;2022-12-18T03:17:46;8.85;;;5.38;;
22646;SDS011;11490;42.726;23.268;2022-12-18T03:20:18;9.38;;;5.88;;
22646;SDS011;11490;42.726;23.268;2022-12-18T03:22:46;9.32;;;6.30;;
22646;SDS011;11490;42.726;23.268;2022-12-18T03:25:16;7.93;;;5.60;;
22646;SDS011;11490;42.726;23.268;2022-12-18T03:27:46;7.90;;;4.72;;
22646;SDS011;11490;42.726;23.268;2022-12-18T03:30:14;11.32;;;6.82;;
22646;SDS011;11490;42.726;23.268;2022-12-18T03:35:26;6.10;;;4.90;;
22646;SDS011;11490;42.726;23.268;2022-12-18T03:37:56;11.88;;;6.47;;
22646;SDS011;11490;42.726;23.268;2022-12-18T03:40:22;7.45;;;5.57;;
22646;SDS011;11490;42.726;23.268;2022-12-18T03:43:09;6.82;;;6.05;;
22646;SDS011;11490;42.726;23.268;2022-12-18T03:45:42;7.78;;;5.50;;
22646;SDS011;11490;42.726;23.268;2022-12-18T03:48:17;8.50;;;6.60;;
22646;SDS011;11490;42.726;23.268;2022-12-18T03:50:48;11.55;;;6.68;;
22646;SDS011;11490;42.726;23.268;2022-12-18T03:53:22;10.82;;;6.88;;
22646;SDS011;11490;42.726;23.268;2022-12-18T03:55:49;11.95;;;6.15;;
22646;SDS011;11490;42.726;23.268;2022-12-18T03:58:17;8.60;;;6.20;;
22646;SDS011;11490;42.726;23.268;2022-12-18T04:00:46;12.23;;;6.57;;
22646;SDS011;11490;42.726;23.268;2022-12-18T04:03:14;8.05;;;6.45;;
22646;SDS011;11490;42.726;23.268;2022-12-18T04:05:42;9.02;;;6.43;;
22646;SDS011;11490;42.726;23.268;2022-12-18T04:08:09;8.43;;;6.55;;
22646;SDS011;11490;42.726;23.268;2022-12-18T04:10:34;10.20;;;6.90;;
22646;SDS011;11490;42.726;23.268;2022-12-18T04:13:00;10.65;;;7.20;;
22646;SDS011;11490;42.726;23.268;2022-12-18T04:15:26;8.55;;;5.88;;
22646;SDS011;11490;42.726;23.268;2022-12-18T04:17:51;9.88;;;6.13;;
22646;SDS011;11490;42.726;23.268;2022-12-18T04:20:17;11.30;;;7.30;;
22646;SDS011;11490;42.726;23.268;2022-12-18T04:22:43;6.88;;;5.63;;
22646;SDS011;11490;42.726;23.268;2022-12-18T04:25:08;10.93;;;5.78;;
22646;SDS011;11490;42.726;23.268;2022-12-18T04:27:34;9.85;;;6.75;;
22646;SDS011;11490;42.726;23.268;2022-12-18T04:29:59;10.13;;;5.75;;
22646;SDS011;11490;42.726;23.268;2022-12-18T04:32:25;8.98;;;5.90;;
22646;SDS011;11490;42.726;23.268;2022-12-18T04:34:50;12.85;;;6.65;;
22646;SDS011;11490;42.726;23.268;2022-12-18T04:37:16;9.25;;;6.93;;
22646;SDS011;11490;42.726;23.268;2022-12-18T04:39:41;10.10;;;6.13;;
22646;SDS011;11490;42.726;23.268;2022-12-18T04:42:06;12.98;;;6.72;;
22646;SDS011;11490;42.726;23.268;2022-12-18T04:44:32;10.80;;;6.93;;
22646;SDS011;11490;42.726;23.268;2022-12-18T04:46:57;10.85;;;6.75;;
22646;SDS011;11490;42.726;23.268;2022-12-18T04:49:22;13.55;;;7.10;;
22646;SDS011;11490;42.726;23.268;2022-12-18T04:51:48;11.50;;;6.32;;
22646;SDS011;11490;42.726;23.268;2022-12-18T04:54:13;9.63;;;6.70;;
22646;SDS011;11490;42.726;23.268;2022-12-18T04:56:39;10.30;;;7.15;;
22646;SDS011;11490;42.726;23.268;2022-12-18T04:59:04;12.18;;;7.28;;
22646;SDS011;11490;42.726;23.268;2022-12-18T05:01:30;8.68;;;7.15;;
22646;SDS011;11490;42.726;23.268;2022-12-18T05:03:55;10.07;;;6.32;;
22646;SDS011;11490;42.726;23.268;2022-12-18T05:06:20;12.77;;;8.52;;
22646;SDS011;11490;42.726;23.268;2022-12-18T05:08:46;12.82;;;9.15;;
22646;SDS011;11490;42.726;23.268;2022-12-18T05:11:12;9.35;;;5.55;;
22646;SDS011;11490;42.726;23.268;2022-12-18T05:13:40;9.50;;;7.70;;
22646;SDS011;11490;42.726;23.268;2022-12-18T05:16:06;13.85;;;8.18;;
22646;SDS011;11490;42.726;23.268;2022-12-18T05:18:32;13.20;;;8.48;;
22646;SDS011;11490;42.726;23.268;2022-12-18T05:20:58;13.05;;;7.57;;
22646;SDS011;11490;42.726;23.268;2022-12-18T05:23:23;13.43;;;7.68;;
22646;SDS011;11490;42.726;23.268;2022-12-18T05:25:53;16.65;;;7.68;;
22646;SDS011;11490;42.726;23.268;2022-12-18T05:28:20;13.68;;;9.38;;
22646;SDS011;11490;42.726;23.268;2022-12-18T05:30:50;10.68;;;7.45;;
22646;SDS011;11490;42.726;23.268;2022-12-18T05:33:17;13.73;;;7.40;;
22646;SDS011;11490;42.726;23.268;2022-12-18T05:35:43;12.82;;;8.52;;
22646;SDS011;11490;42.726;23.268;2022-12-18T05:38:09;9.75;;;6.00;;
22646;SDS011;11490;42.726;23.268;2022-12-18T05:40:34;9.60;;;7.20;;
22646;SDS011;11490;42.726;23.268;2022-12-18T05:42:59;13.35;;;6.20;;
22646;SDS011;11490;42.726;23.268;2022-12-18T05:45:25;10.52;;;7.88;;
22646;SDS011;11490;42.726;23.268;2022-12-18T05:47:50;16.23;;;9.00;;
22646;SDS011;11490;42.726;23.268;2022-12-18T05:50:15;13.05;;;8.80;;
22646;SDS011;11490;42.726;23.268;2022-12-18T05:52:41;12.88;;;7.13;;
22646;SDS011;11490;42.726;23.268;2022-12-18T05:55:06;13.43;;;8.07;;
22646;SDS011;11490;42.726;23.268;2022-12-18T05:57:32;15.95;;;8.75;;
22646;SDS011;11490;42.726;23.268;2022-12-18T05:59:57;13.50;;;8.60;;
22646;SDS011;11490;42.726;23.268;2022-12-18T06:02:23;13.57;;;7.68;;
22646;SDS011;11490;42.726;23.268;2022-12-18T06:04:48;19.33;;;9.13;;
22646;SDS011;11490;42.726;23.268;2022-12-18T06:07:14;12.23;;;7.00;;
22646;SDS011;11490;42.726;23.268;2022-12-18T06:09:39;10.20;;;7.90;;
22646;SDS011;11490;42.726;23.268;2022-12-18T06:12:04;18.90;;;8.80;;
22646;SDS011;11490;42.726;23.268;2022-12-18T06:14:30;14.13;;;7.47;;
22646;SDS011;11490;42.726;23.268;2022-12-18T06:16:55;11.48;;;6.70;;
22646;SDS011;11490;42.726;23.268;2022-12-18T06:19:21;10.63;;;7.85;;
22646;SDS011;11490;42.726;23.268;2022-12-18T06:21:46;16.90;;;7.90;;
22646;SDS011;11490;42.726;23.268;2022-12-18T06:24:12;16.20;;;7.55;;
22646;SDS011;11490;42.726;23.268;2022-12-18T06:26:40;14.32;;;8.18;;
22646;SDS011;11490;42.726;23.268;2022-12-18T06:29:06;12.30;;;8.30;;
22646;SDS011;11490;42.726;23.268;2022-12-18T06:31:31;10.35;;;6.53;;
22646;SDS011;11490;42.726;23.268;2022-12-18T06:33:57;11.60;;;7.57;;
22646;SDS011;11490;42.726;23.268;2022-12-18T06:36:22;13.18;;;8.35;;
22646;SDS011;11490;42.726;23.268;2022-12-18T06:38:48;12.20;;;7.32;;
22646;SDS011;11490;42.726;23.268;2022-12-18T06:41:15;13.80;;;7.97;;
22646;SDS011;11490;42.726;23.268;2022-12-18T06:43:43;12.70;;;6.38;;
22646;SDS011;11490;42.726;23.268;2022-12-18T06:46:09;15.70;;;7.72;;
22646;SDS011;11490;42.726;23.268;2022-12-18T06:48:35;13.30;;;8.30;;
22646;SDS011;11490;42.726;23.268;2022-12-18T06:51:00;11.35;;;7.35;;
22646;SDS011;11490;42.726;23.268;2022-12-18T06:53:26;13.60;;;7.72;;
22646;SDS011;11490;42.726;23.268;2022-12-18T06:55:51;14.07;;;7.30;;
22646;SDS011;11490;42.726;23.268;2022-12-18T06:58:17;14.23;;;7.50;;
22646;SDS011;11490;42.726;23.268;2022-12-18T07:00:43;15.93;;;6.82;;
22646;SDS011;11490;42.726;23.268;2022-12-18T07:03:08;12.90;;;7.78;;
22646;SDS011;11490;42.726;23.268;2022-12-18T07:05:34;16.00;;;9.10;;
22646;SDS011;11490;42.726;23.268;2022-12-18T07:08:04;18.30;;;8.85;;
22646;SDS011;11490;42.726;23.268;2022-12-18T07:10:29;18.58;;;10.75;;
22646;SDS011;11490;42.726;23.268;2022-12-18T07:12:54;13.73;;;8.18;;
22646;SDS011;11490;42.726;23.268;2022-12-18T07:15:20;11.35;;;6.55;;
22646;SDS011;11490;42.726;23.268;2022-12-18T07:17:45;11.57;;;8.20;;
22646;SDS011;11490;42.726;23.268;2022-12-18T07:20:10;15.38;;;8.95;;
22646;SDS011;11490;42.726;23.268;2022-12-18T07:22:36;22.35;;;8.63;;
22646;SDS011;11490;42.726;23.268;2022-12-18T07:25:01;11.52;;;7.47;;
22646;SDS011;11490;42.726;23.268;2022-12-18T07:27:27;14.05;;;9.60;;
22646;SDS011;11490;42.726;23.268;2022-12-18T07:29:52;14.75;;;8.63;;
22646;SDS011;11490;42.726;23.268;2022-12-18T07:32:17;13.70;;;7.85;;
22646;SDS011;11490;42.726;23.268;2022-12-18T07:34:43;13.98;;;8.82;;
22646;SDS011;11490;42.726;23.268;2022-12-18T07:37:08;15.30;;;8.77;;
22646;SDS011;11490;42.726;23.268;2022-12-18T07:39:34;16.50;;;8.90;;
22646;SDS011;11490;42.726;23.268;2022-12-18T07:41:59;11.98;;;7.80;;
22646;SDS011;11490;42.726;23.268;2022-12-18T07:44:43;17.20;;;8.73;;
22646;SDS011;11490;42.726;23.268;2022-12-18T07:47:08;19.15;;;9.00;;
22646;SDS011;11490;42.726;23.268;2022-12-18T07:49:33;22.83;;;11.45;;
22646;SDS011;11490;42.726;23.268;2022-12-18T07:51:59;12.57;;;8.73;;
22646;SDS011;11490;42.726;23.268;2022-12-18T07:54:24;16.67;;;10.02;;
22646;SDS011;11490;42.726;23.268;2022-12-18T07:56:50;16.20;;;9.98;;
22646;SDS011;11490;42.726;23.268;2022-12-18T07:59:17;16.15;;;10.38;;
22646;SDS011;11490;42.726;23.268;2022-12-18T08:01:42;15.60;;;8.55;;
22646;SDS011;11490;42.726;23.268;2022-12-18T08:04:08;16.30;;;8.77;;
22646;SDS011;11490;42.726;23.268;2022-12-18T08:06:33;15.27;;;9.13;;
22646;SDS011;11490;42.726;23.268;2022-12-18T08:08:59;13.52;;;8.88;;
22646;SDS011;11490;42.726;23.268;2022-12-18T08:11:25;13.27;;;8.38;;
22646;SDS011;11490;42.726;23.268;2022-12-18T08:13:51;11.00;;;7.55;;
22646;SDS011;11490;42.726;23.268;2022-12-18T08:16:17;15.25;;;9.90;;
22646;SDS011;11490;42.726;23.268;2022-12-18T08:18:43;12.30;;;9.13;;
22646;SDS011;11490;42.726;23.268;2022-12-18T08:21:12;11.85;;;7.85;;
22646;SDS011;11490;42.726;23.268;2022-12-18T08:23:43;16.10;;;8.43;;
22646;SDS011;11490;42.726;23.268;2022-12-18T08:26:13;18.02;;;9.73;;
22646;SDS011;11490;42.726;23.268;2022-12-18T08:28:39;13.45;;;7.45;;
22646;SDS011;11490;42.726;23.268;2022-12-18T08:31:05;14.45;;;8.43;;
22646;SDS011;11490;42.726;23.268;2022-12-18T08:33:32;16.10;;;8.35;;
22646;SDS011;11490;42.726;23.268;2022-12-18T08:35:58;14.25;;;8.75;;
22646;SDS011;11490;42.726;23.268;2022-12-18T08:38:23;10.23;;;6.93;;
22646;SDS011;11490;42.726;23.268;2022-12-18T08:40:49;13.65;;;7.90;;
22646;SDS011;11490;42.726;23.268;2022-12-18T08:43:14;16.00;;;8.43;;
22646;SDS011;11490;42.726;23.268;2022-12-18T08:45:58;13.20;;;7.93;;
22646;SDS011;11490;42.726;23.268;2022-12-18T08:48:23;12.18;;;8.23;;
22646;SDS011;11490;42.726;23.268;2022-12-18T08:50:55;12.35;;;7.70;;
22646;SDS011;11490;42.726;23.268;2022-12-18T08:53:21;8.63;;;5.95;;
22646;SDS011;11490;42.726;23.268;2022-12-18T08:55:47;10.68;;;7.65;;
22646;SDS011;11490;42.726;23.268;2022-12-18T08:58:12;9.38;;;6.75;;
22646;SDS011;11490;42.726;23.268;2022-12-18T09:00:38;11.70;;;7.13;;
22646;SDS011;11490;42.726;23.268;2022-12-18T09:03:03;13.60;;;7.68;;
22646;SDS011;11490;42.726;23.268;2022-12-18T09:05:28;11.65;;;8.13;;
22646;SDS011;11490;42.726;23.268;2022-12-18T09:07:55;9.95;;;6.63;;
22646;SDS011;11490;42.726;23.268;2022-12-18T09:10:21;10.75;;;6.57;;
22646;SDS011;11490;42.726;23.268;2022-12-18T09:12:46;13.27;;;8.57;;
22646;SDS011;11490;42.726;23.268;2022-12-18T09:15:12;11.77;;;7.97;;
22646;SDS011;11490;42.726;23.268;2022-12-18T09:17:37;15.18;;;8.82;;
22646;SDS011;11490;42.726;23.268;2022-12-18T09:20:03;14.90;;;7.88;;
22646;SDS011;11490;42.726;23.268;2022-12-18T09:22:28;10.93;;;6.55;;
22646;SDS011;11490;42.726;23.268;2022-12-18T09:24:54;12.00;;;7.93;;
22646;SDS011;11490;42.726;23.268;2022-12-18T09:27:19;14.93;;;7.88;;
22646;SDS011;11490;42.726;23.268;2022-12-18T09:29:44;12.13;;;7.18;;
22646;SDS011;11490;42.726;23.268;2022-12-18T09:32:10;15.73;;;8.27;;
22646;SDS011;11490;42.726;23.268;2022-12-18T09:34:35;12.40;;;8.68;;
22646;SDS011;11490;42.726;23.268;2022-12-18T09:37:00;10.73;;;7.68;;
22646;SDS011;11490;42.726;23.268;2022-12-18T09:39:26;9.27;;;6.32;;
22646;SDS011;11490;42.726;23.268;2022-12-18T09:41:52;12.57;;;8.40;;
22646;SDS011;11490;42.726;23.268;2022-12-18T09:44:21;14.63;;;7.68;;
22646;SDS011;11490;42.726;23.268;2022-12-18T09:49:42;10.23;;;7.13;;
22646;SDS011;11490;42.726;23.268;2022-12-18T09:52:12;10.60;;;7.50;;
22646;SDS011;11490;42.726;23.268;2022-12-18T09:54:44;9.25;;;6.50;;
22646;SDS011;11490;42.726;23.268;2022-12-18T09:57:18;9.48;;;5.90;;
22646;SDS011;11490;42.726;23.268;2022-12-18T09:59:49;14.90;;;7.95;;
22646;SDS011;11490;42.726;23.268;2022-12-18T10:02:23;12.38;;;7.03;;
22646;SDS011;11490;42.726;23.268;2022-12-18T10:05:04;11.75;;;8.30;;
22646;SDS011;11490;42.726;23.268;2022-12-18T10:13:04;9.82;;;6.57;;
22646;SDS011;11490;42.726;23.268;2022-12-18T10:21:14;11.45;;;7.28;;
22646;SDS011;11490;42.726;23.268;2022-12-18T10:26:29;9.95;;;7.05;;
22646;SDS011;11490;42.726;23.268;2022-12-18T10:28:56;12.63;;;7.30;;
22646;SDS011;11490;42.726;23.268;2022-12-18T10:31:23;12.73;;;7.80;;
22646;SDS011;11490;42.726;23.268;2022-12-18T10:33:50;11.07;;;6.60;;
22646;SDS011;11490;42.726;23.268;2022-12-18T10:36:15;16.50;;;11.18;;
22646;SDS011;11490;42.726;23.268;2022-12-18T10:38:41;18.27;;;11.18;;
22646;SDS011;11490;42.726;23.268;2022-12-18T10:43:46;9.05;;;6.88;;
22646;SDS011;11490;42.726;23.268;2022-12-18T10:46:12;12.73;;;7.13;;
22646;SDS011;11490;42.726;23.268;2022-12-18T10:51:19;13.23;;;8.68;;
22646;SDS011;11490;42.726;23.268;2022-12-18T10:53:51;9.02;;;6.10;;
22646;SDS011;11490;42.726;23.268;2022-12-18T10:56:21;10.38;;;6.18;;
22646;SDS011;11490;42.726;23.268;2022-12-18T10:58:55;12.65;;;6.82;;
22646;SDS011;11490;42.726;23.268;2022-12-18T11:01:23;12.40;;;8.10;;
22646;SDS011;11490;42.726;23.268;2022-12-18T11:06:21;14.43;;;8.82;;
22646;SDS011;11490;42.726;23.268;2022-12-18T11:09:02;12.95;;;8.57;;
22646;SDS011;11490;42.726;23.268;2022-12-18T11:11:30;22.83;;;8.57;;
22646;SDS011;11490;42.726;23.268;2022-12-18T11:16:42;14.98;;;7.90;;
22646;SDS011;11490;42.726;23.268;2022-12-18T11:21:58;11.70;;;7.75;;
22646;SDS011;11490;42.726;23.268;2022-12-18T11:24:33;13.00;;;7.95;;
22646;SDS011;11490;42.726;23.268;2022-12-18T11:27:00;14.18;;;8.57;;
22646;SDS011;11490;42.726;23.268;2022-12-18T11:29:30;11.57;;;7.63;;
22646;SDS011;11490;42.726;23.268;2022-12-18T11:34:41;14.38;;;8.40;;
22646;SDS011;11490;42.726;23.268;2022-12-18T11:37:11;16.60;;;9.65;;
22646;SDS011;11490;42.726;23.268;2022-12-18T11:39:45;16.20;;;8.95;;
22646;SDS011;11490;42.726;23.268;2022-12-18T11:42:38;12.65;;;8.13;;
22646;SDS011;11490;42.726;23.268;2022-12-18T11:47:57;14.00;;;8.07;;
22646;SDS011;11490;42.726;23.268;2022-12-18T11:53:01;19.63;;;10.43;;
22646;SDS011;11490;42.726;23.268;2022-12-18T11:55:39;18.23;;;10.32;;
22646;SDS011;11490;42.726;23.268;2022-12-18T12:13:18;15.75;;;8.82;;
22646;SDS011;11490;42.726;23.268;2022-12-18T12:21:00;12.63;;;6.95;;
22646;SDS011;11490;42.726;23.268;2022-12-18T12:31:56;18.05;;;9.60;;
22646;SDS011;11490;42.726;23.268;2022-12-18T12:34:24;17.88;;;9.35;;
22646;SDS011;11490;42.726;23.268;2022-12-18T12:39:18;13.27;;;8.95;;
22646;SDS011;11490;42.726;23.268;2022-12-18T12:41:47;13.48;;;9.32;;
22646;SDS011;11490;42.726;23.268;2022-12-18T12:44:35;12.45;;;8.50;;
22646;SDS011;11490;42.726;23.268;2022-12-18T12:47:18;19.67;;;8.93;;
22646;SDS011;11490;42.726;23.268;2022-12-18T12:49:51;17.73;;;9.98;;
22646;SDS011;11490;42.726;23.268;2022-12-18T12:52:23;18.13;;;10.65;;
22646;SDS011;11490;42.726;23.268;2022-12-18T12:55:03;16.17;;;8.80;;
22646;SDS011;11490;42.726;23.268;2022-12-18T12:57:37;18.67;;;9.00;;
22646;SDS011;11490;42.726;23.268;2022-12-18T13:02:37;16.65;;;9.88;;
22646;SDS011;11490;42.726;23.268;2022-12-18T13:10:43;11.85;;;7.32;;
22646;SDS011;11490;42.726;23.268;2022-12-18T13:13:09;13.52;;;8.73;;
22646;SDS011;11490;42.726;23.268;2022-12-18T13:20:41;13.77;;;8.25;;
22646;SDS011;11490;42.726;23.268;2022-12-18T13:30:59;10.77;;;7.05;;
22646;SDS011;11490;42.726;23.268;2022-12-18T13:35:52;9.82;;;6.85;;
22646;SDS011;11490;42.726;23.268;2022-12-18T13:40:58;13.43;;;7.47;;
22646;SDS011;11490;42.726;23.268;2022-12-18T13:43:32;11.73;;;7.78;;
22646;SDS011;11490;42.726;23.268;2022-12-18T13:46:06;14.40;;;7.10;;
22646;SDS011;11490;42.726;23.268;2022-12-18T13:48:49;11.73;;;7.45;;
22646;SDS011;11490;42.726;23.268;2022-12-18T13:51:16;14.90;;;8.65;;
22646;SDS011;11490;42.726;23.268;2022-12-18T13:53:44;14.73;;;8.43;;
22646;SDS011;11490;42.726;23.268;2022-12-18T13:56:18;12.23;;;7.70;;
22646;SDS011;11490;42.726;23.268;2022-12-18T13:58:46;16.73;;;8.70;;
22646;SDS011;11490;42.726;23.268;2022-12-18T14:01:23;13.93;;;7.80;;
22646;SDS011;11490;42.726;23.268;2022-12-18T14:03:49;8.95;;;6.05;;
22646;SDS011;11490;42.726;23.268;2022-12-18T14:06:15;11.10;;;7.43;;
22646;SDS011;11490;42.726;23.268;2022-12-18T14:08:41;22.88;;;10.57;;
22646;SDS011;11490;42.726;23.268;2022-12-18T14:11:17;20.23;;;11.45;;
22646;SDS011;11490;42.726;23.268;2022-12-18T14:13:46;22.65;;;10.38;;
22646;SDS011;11490;42.726;23.268;2022-12-18T14:16:13;16.45;;;8.93;;
22646;SDS011;11490;42.726;23.268;2022-12-18T14:21:23;18.42;;;9.57;;
22646;SDS011;11490;42.726;23.268;2022-12-18T14:26:38;11.05;;;7.43;;
22646;SDS011;11490;42.726;23.268;2022-12-18T14:34:38;29.65;;;11.52;;
22646;SDS011;11490;42.726;23.268;2022-12-18T14:37:04;22.08;;;11.10;;
22646;SDS011;11490;42.726;23.268;2022-12-18T14:39:30;33.83;;;11.25;;
22646;SDS011;11490;42.726;23.268;2022-12-18T14:41:55;15.57;;;9.65;;
22646;SDS011;11490;42.726;23.268;2022-12-18T14:44:20;21.80;;;9.85;;
22646;SDS011;11490;42.726;23.268;2022-12-18T14:46:47;24.52;;;10.77;;
22646;SDS011;11490;42.726;23.268;2022-12-18T14:49:31;17.35;;;10.02;;
22646;SDS011;11490;42.726;23.268;2022-12-18T14:51:59;14.95;;;8.75;;
22646;SDS011;11490;42.726;23.268;2022-12-18T14:54:34;16.10;;;9.15;;
22646;SDS011;11490;42.726;23.268;2022-12-18T14:57:05;14.85;;;8.25;;
22646;SDS011;11490;42.726;23.268;2022-12-18T14:59:42;14.95;;;7.63;;
22646;SDS011;11490;42.726;23.268;2022-12-18T15:05:01;18.60;;;8.05;;
22646;SDS011;11490;42.726;23.268;2022-12-18T15:07:44;18.40;;;10.20;;
22646;SDS011;11490;42.726;23.268;2022-12-18T15:10:11;13.32;;;8.70;;
22646;SDS011;11490;42.726;23.268;2022-12-18T15:12:41;15.57;;;9.02;;
22646;SDS011;11490;42.726;23.268;2022-12-18T15:20:55;19.55;;;11.30;;
22646;SDS011;11490;42.726;23.268;2022-12-18T15:23:28;14.10;;;10.00;;
22646;SDS011;11490;42.726;23.268;2022-12-18T15:26:01;12.48;;;8.40;;
22646;SDS011;11490;42.726;23.268;2022-12-18T15:28:39;11.00;;;6.93;;
22646;SDS011;11490;42.726;23.268;2022-12-18T15:31:31;9.68;;;6.97;;
22646;SDS011;11490;42.726;23.268;2022-12-18T15:36:22;13.13;;;8.27;;
22646;SDS011;11490;42.726;23.268;2022-12-18T15:38:49;11.50;;;7.32;;
22646;SDS011;11490;42.726;23.268;2022-12-18T15:41:16;11.23;;;8.65;;
22646;SDS011;11490;42.726;23.268;2022-12-18T15:43:44;9.50;;;7.07;;
22646;SDS011;11490;42.726;23.268;2022-12-18T15:46:12;12.25;;;6.88;;
22646;SDS011;11490;42.726;23.268;2022-12-18T15:48:43;20.23;;;7.43;;
22646;SDS011;11490;42.726;23.268;2022-12-18T15:51:11;10.93;;;6.70;;
22646;SDS011;11490;42.726;23.268;2022-12-18T15:53:41;12.00;;;7.53;;
22646;SDS011;11490;42.726;23.268;2022-12-18T15:56:13;16.65;;;7.20;;
22646;SDS011;11490;42.726;23.268;2022-12-18T15:58:59;14.50;;;8.35;;
22646;SDS011;11490;42.726;23.268;2022-12-18T16:01:26;12.20;;;6.95;;
22646;SDS011;11490;42.726;23.268;2022-12-18T16:03:54;15.93;;;9.52;;
22646;SDS011;11490;42.726;23.268;2022-12-18T16:06:20;11.85;;;7.47;;
22646;SDS011;11490;42.726;23.268;2022-12-18T16:08:47;12.82;;;8.23;;
22646;SDS011;11490;42.726;23.268;2022-12-18T16:11:26;13.77;;;8.45;;
22646;SDS011;11490;42.726;23.268;2022-12-18T16:14:20;13.15;;;7.93;;
22646;SDS011;11490;42.726;23.268;2022-12-18T16:16:47;16.17;;;8.50;;
22646;SDS011;11490;42.726;23.268;2022-12-18T16:19:17;14.80;;;7.65;;
22646;SDS011;11490;42.726;23.268;2022-12-18T16:21:43;17.88;;;6.63;;
22646;SDS011;11490;42.726;23.268;2022-12-18T16:24:15;11.95;;;7.45;;
22646;SDS011;11490;42.726;23.268;2022-12-18T16:26:41;27.55;;;13.55;;
22646;SDS011;11490;42.726;23.268;2022-12-18T16:29:07;43.53;;;20.33;;
22646;SDS011;11490;42.726;23.268;2022-12-18T16:31:33;23.75;;;13.52;;
22646;SDS011;11490;42.726;23.268;2022-12-18T16:36:36;51.65;;;24.25;;
22646;SDS011;11490;42.726;23.268;2022-12-18T16:39:01;22.45;;;11.88;;
22646;SDS011;11490;42.726;23.268;2022-12-18T16:41:27;13.57;;;8.68;;
22646;SDS011;11490;42.726;23.268;2022-12-18T16:44:01;19.83;;;11.50;;
22646;SDS011;11490;42.726;23.268;2022-12-18T16:46:27;16.80;;;9.40;;
22646;SDS011;11490;42.726;23.268;2022-12-18T16:48:52;14.68;;;8.02;;
22646;SDS011;11490;42.726;23.268;2022-12-18T16:51:18;12.30;;;7.20;;
22646;SDS011;11490;42.726;23.268;2022-12-18T16:53:43;30.45;;;18.77;;